createdAt,value
2016-11-15T00:00:04.611Z,1026.4
2016-11-15T00:05:04.912Z,1026.29
2016-11-15T00:10:04.685Z,1026.38
2016-11-15T00:15:04.175Z,1026.34
2016-11-15T00:20:04.865Z,1026.35
2016-11-15T00:25:05.121Z,1026.15
2016-11-15T00:30:05.287Z,1026.26
2016-11-15T00:35:04.618Z,1026.12
2016-11-15T00:40:04.175Z,1026.13
2016-11-15T00:45:04.621Z,1026.09
2016-11-15T00:50:04.631Z,1026.02
2016-11-15T00:55:04.197Z,1025.96
2016-11-15T01:00:04.810Z,1025.93
2016-11-15T01:05:04.942Z,1026.02
2016-11-15T01:10:04.411Z,1025.93
2016-11-15T01:15:04.463Z,1025.99
2016-11-15T01:20:04.866Z,1025.93
2016-11-15T01:25:04.399Z,1025.83
2016-11-15T01:30:04.393Z,1025.85
2016-11-15T01:35:04.990Z,1025.82
2016-11-15T01:40:04.678Z,1025.78
2016-11-15T01:45:04.979Z,1025.73
2016-11-15T01:50:04.783Z,1025.61
2016-11-15T01:55:05.042Z,1025.64
2016-11-15T02:00:04.373Z,1025.41
2016-11-15T02:05:04.728Z,1025.43
2016-11-15T02:10:04.427Z,1025.28
2016-11-15T02:15:05.066Z,1025.34
2016-11-15T02:20:04.445Z,1025.24
2016-11-15T02:25:04.577Z,1025.14
2016-11-15T02:30:04.666Z,1025.12
2016-11-15T02:35:04.494Z,1025.18
2016-11-15T02:40:04.469Z,1025.05
2016-11-15T02:45:04.994Z,1025.06
2016-11-15T02:50:04.750Z,1024.89
2016-11-15T02:55:04.921Z,1024.89
2016-11-15T03:00:05.301Z,1024.83
2016-11-15T03:05:04.972Z,1024.82
2016-11-15T03:10:04.784Z,1024.8
2016-11-15T03:15:04.264Z,1024.8
2016-11-15T03:20:05.080Z,1024.73
2016-11-15T03:25:04.529Z,1024.71
2016-11-15T03:30:04.563Z,1024.72
2016-11-15T03:35:05.038Z,1024.58
2016-11-15T03:40:05.247Z,1024.67
2016-11-15T03:45:04.085Z,1024.58
2016-11-15T03:50:04.576Z,1024.61
2016-11-15T03:55:05.053Z,1024.63
2016-11-15T04:00:05.647Z,1024.55
2016-11-15T04:05:04.465Z,1024.51
2016-11-15T04:10:05.269Z,1024.49
2016-11-15T04:15:05.249Z,1024.38
2016-11-15T04:20:04.654Z,1024.24
2016-11-15T04:25:04.324Z,1024.31
2016-11-15T04:30:04.848Z,1024.39
2016-11-15T04:35:04.398Z,1024.25
2016-11-15T04:40:04.830Z,1024.25
2016-11-15T04:45:04.461Z,1024.2
2016-11-15T04:50:04.797Z,1024.2
2016-11-15T04:55:05.044Z,1024.13
2016-11-15T05:00:04.305Z,1024.1
2016-11-15T05:05:04.448Z,1024.15
2016-11-15T05:10:04.536Z,1024.06
2016-11-15T05:15:04.852Z,1023.97
2016-11-15T05:20:05.012Z,1023.87
2016-11-15T05:25:04.490Z,1023.87
2016-11-15T05:30:04.717Z,1023.86
2016-11-15T05:35:05.043Z,1023.76
2016-11-15T05:40:04.408Z,1023.78
2016-11-15T05:45:04.190Z,1023.72
2016-11-15T05:50:04.536Z,1023.77
2016-11-15T05:55:05.057Z,1023.75
2016-11-15T06:00:04.531Z,1023.66
2016-11-15T06:05:04.720Z,1023.64
2016-11-15T06:10:04.541Z,1023.77
2016-11-15T06:15:04.198Z,1023.65
2016-11-15T06:20:04.432Z,1023.68
2016-11-15T06:25:04.920Z,1024.03
2016-11-15T06:30:04.506Z,1023.75
2016-11-15T06:35:05.231Z,1023.69
2016-11-15T06:40:04.873Z,1023.7
2016-11-15T06:45:04.996Z,1023.73
2016-11-15T06:50:05.194Z,1023.63
2016-11-15T06:55:04.563Z,1023.62
2016-11-15T07:00:05.139Z,1023.52
2016-11-15T07:05:04.262Z,1023.65
2016-11-15T07:10:04.331Z,1023.77
2016-11-15T07:15:04.749Z,1023.7
2016-11-15T07:20:04.404Z,1023.8
2016-11-15T07:25:04.893Z,1023.74
2016-11-15T07:30:04.508Z,1023.55
2016-11-15T07:35:04.989Z,1023.52
2016-11-15T07:40:04.912Z,1023.51
2016-11-15T07:45:05.222Z,1023.68
2016-11-15T07:50:04.950Z,1023.64
2016-11-15T07:55:04.425Z,1023.61
2016-11-15T08:00:04.472Z,1023.62
2016-11-15T08:05:04.368Z,1023.73
2016-11-15T08:10:04.427Z,1023.84
2016-11-15T08:15:05.078Z,1023.91
2016-11-15T08:20:05.002Z,1023.88
2016-11-15T08:25:04.429Z,1023.94
2016-11-15T08:30:05.055Z,1023.9
2016-11-15T08:35:04.511Z,1023.87
2016-11-15T08:40:04.244Z,1023.79
2016-11-15T08:45:04.182Z,1023.91
2016-11-15T08:50:05.134Z,1024
2016-11-15T08:55:04.377Z,1023.88
2016-11-15T09:00:05.012Z,1023.93
2016-11-15T09:05:04.283Z,1024.1
2016-11-15T09:10:04.967Z,1023.9
2016-11-15T09:15:04.534Z,1023.88
2016-11-15T09:20:04.823Z,1023.66
2016-11-15T09:25:04.034Z,1023.54
2016-11-15T09:30:04.935Z,1023.57
2016-11-15T09:35:04.516Z,1023.79
2016-11-15T09:40:04.280Z,1023.88
2016-11-15T09:45:04.659Z,1023.98
2016-11-15T09:50:05.057Z,1023.87
2016-11-15T09:55:04.828Z,1024.02
2016-11-15T10:00:04.759Z,1024.06
2016-11-15T10:05:04.867Z,1024.04
2016-11-15T10:10:04.685Z,1023.95
2016-11-15T10:15:05.326Z,1023.89
2016-11-15T10:20:04.421Z,1024.03
2016-11-15T10:25:04.910Z,1023.97
2016-11-15T10:30:04.032Z,1023.89
2016-11-15T10:35:04.735Z,1023.86
2016-11-15T10:40:04.640Z,1023.81
2016-11-15T10:45:04.626Z,1023.81
2016-11-15T10:50:04.377Z,1023.77
2016-11-15T10:55:04.668Z,1023.81
2016-11-15T11:00:04.900Z,1023.79
2016-11-15T11:05:04.800Z,1023.71
2016-11-15T11:10:04.517Z,1023.85
2016-11-15T11:15:04.710Z,1023.75
2016-11-15T11:20:04.398Z,1023.7
2016-11-15T11:25:04.996Z,1023.58
2016-11-15T11:30:04.564Z,1023.44
2016-11-15T11:35:04.822Z,1023.44
2016-11-15T11:40:04.409Z,1023.38
2016-11-15T11:45:04.759Z,1023.43
2016-11-15T11:50:04.341Z,1023.43
2016-11-15T11:55:04.710Z,1023.33
2016-11-15T12:00:04.455Z,1023.33
2016-11-15T12:05:04.697Z,1023.16
2016-11-15T12:10:04.949Z,1023.06
2016-11-15T12:15:04.307Z,1022.97
2016-11-15T12:20:04.433Z,1022.98
2016-11-15T12:25:04.801Z,1023.07
2016-11-15T12:30:05.142Z,1023.01
2016-11-15T12:35:04.720Z,1023.02
2016-11-15T12:40:04.376Z,1022.96
2016-11-15T12:45:04.901Z,1022.88
2016-11-15T12:50:04.474Z,1022.88
2016-11-15T12:55:05.116Z,1022.86
2016-11-15T13:00:04.877Z,1022.88
2016-11-15T13:05:04.953Z,1022.86
2016-11-15T13:10:05.600Z,1022.87
2016-11-15T13:15:04.576Z,1022.83
2016-11-15T13:20:05.188Z,1022.83
2016-11-15T13:25:05.023Z,1022.83
2016-11-15T13:30:04.212Z,1022.77
2016-11-15T13:35:04.860Z,1022.76
2016-11-15T13:40:04.982Z,1022.7
2016-11-15T13:45:04.792Z,1022.67
2016-11-15T13:50:05.117Z,1022.7
2016-11-15T13:55:04.635Z,1022.71
2016-11-15T14:00:04.790Z,1022.74
2016-11-15T14:05:04.851Z,1022.72
2016-11-15T14:10:04.703Z,1022.77
2016-11-15T14:15:04.856Z,1022.59
2016-11-15T14:20:04.642Z,1022.52
2016-11-15T14:25:04.444Z,1022.52
2016-11-15T14:30:04.731Z,1022.5
2016-11-15T14:35:05.126Z,1022.52
2016-11-15T14:40:04.381Z,1022.54
2016-11-15T14:45:04.922Z,1022.58
2016-11-15T14:50:04.872Z,1022.55
2016-11-15T14:55:05.140Z,1022.5
2016-11-15T15:00:04.413Z,1022.65
2016-11-15T15:05:04.999Z,1022.63
2016-11-15T15:10:04.800Z,1022.6
2016-11-15T15:15:04.742Z,1022.62
2016-11-15T15:20:04.453Z,1022.64
2016-11-15T15:25:04.864Z,1022.54
2016-11-15T15:30:04.825Z,1022.45
2016-11-15T15:35:04.287Z,1022.33
2016-11-15T15:40:04.336Z,1022.34
2016-11-15T15:45:04.421Z,1022.46
2016-11-15T15:50:04.629Z,1022.36
2016-11-15T15:55:04.893Z,1022.35
2016-11-15T16:00:05.003Z,1022.25
2016-11-15T16:05:04.340Z,1022.2
2016-11-15T16:10:04.310Z,1022.28
2016-11-15T16:15:04.361Z,1022.3
2016-11-15T16:20:05.005Z,1022.4
2016-11-15T16:25:04.330Z,1022.53
2016-11-15T16:30:04.971Z,1022.58
2016-11-15T16:35:04.844Z,1022.51
2016-11-15T16:40:05.083Z,1022.47
2016-11-15T16:45:04.680Z,1022.55
2016-11-15T16:50:04.963Z,1022.56
2016-11-15T16:55:04.341Z,1022.57
2016-11-15T17:00:05.224Z,1022.47
2016-11-15T17:05:04.968Z,1022.56
2016-11-15T17:10:04.920Z,1022.46
2016-11-15T17:15:04.321Z,1022.42
2016-11-15T17:20:04.653Z,1022.47
2016-11-15T17:25:06.448Z,1022.36
2016-11-15T17:30:04.963Z,1022.32
2016-11-15T17:35:04.268Z,1022.37
2016-11-15T17:40:04.480Z,1022.43
2016-11-15T17:50:05.125Z,1022.45
2016-11-15T17:55:04.618Z,1022.49
2016-11-15T18:00:04.576Z,1022.56
2016-11-15T18:05:04.520Z,1022.47
2016-11-15T18:10:04.898Z,1022.54
2016-11-15T18:15:04.850Z,1022.49
2016-11-15T18:20:05.005Z,1022.6
2016-11-15T18:25:05.086Z,1022.54
2016-11-15T18:30:04.600Z,1022.56
2016-11-15T18:35:04.631Z,1022.56
2016-11-15T18:40:04.696Z,1022.47
2016-11-15T18:45:04.432Z,1022.39
2016-11-15T18:50:05.175Z,1022.38
2016-11-15T18:55:05.020Z,1022.41
2016-11-15T19:00:04.925Z,1022.34
2016-11-15T19:05:04.778Z,1022.3
2016-11-15T19:10:04.866Z,1022.35
2016-11-15T19:15:04.671Z,1022.36
2016-11-15T19:20:04.488Z,1022.33
2016-11-15T19:25:04.307Z,1022.42
2016-11-15T19:30:05.039Z,1022.47
2016-11-15T19:35:04.802Z,1022.39
2016-11-15T19:40:04.953Z,1022.36
2016-11-15T19:45:04.806Z,1022.39
2016-11-15T19:50:04.622Z,1022.31
2016-11-15T19:55:04.480Z,1022.2
2016-11-15T20:00:04.237Z,1022.17
2016-11-15T20:05:05.210Z,1022.14
2016-11-15T20:10:04.266Z,1022.2
2016-11-15T20:15:05.047Z,1022.28
2016-11-15T20:20:04.846Z,1022.23
2016-11-15T20:25:04.527Z,1022.24
2016-11-15T20:30:04.310Z,1022.17
2016-11-15T20:35:05.225Z,1022.13
2016-11-15T20:40:04.279Z,1022.17
2016-11-15T20:45:04.314Z,1022.09
2016-11-15T20:50:05.174Z,1022.05
2016-11-15T20:55:05.273Z,1022.03
2016-11-15T21:00:05.186Z,1022.11
2016-11-15T21:05:04.683Z,1022.11
2016-11-15T21:10:04.895Z,1022.06
2016-11-15T21:15:04.404Z,1022.06
2016-11-15T21:20:04.179Z,1022.08
2016-11-15T21:25:04.313Z,1022.16
2016-11-15T21:30:04.848Z,1022.19
2016-11-15T21:35:04.817Z,1022.04
2016-11-15T21:40:04.415Z,1022.09
2016-11-15T21:45:04.557Z,1022.09
2016-11-15T21:50:04.562Z,1022.06
2016-11-15T21:55:04.440Z,1022.05
2016-11-15T22:00:04.586Z,1022.08
2016-11-15T22:05:04.862Z,1022.05
2016-11-15T22:10:05.063Z,1022.03
2016-11-15T22:15:04.691Z,1021.94
2016-11-15T22:20:05.077Z,1021.89
2016-11-15T22:25:04.376Z,1021.96
2016-11-15T22:30:04.280Z,1021.89
2016-11-15T22:35:04.263Z,1021.73
2016-11-15T22:40:04.346Z,1021.8
2016-11-15T22:45:04.455Z,1021.63
2016-11-15T22:50:04.747Z,1021.59
2016-11-15T22:55:04.837Z,1021.55
2016-11-15T23:00:04.250Z,1021.58
2016-11-15T23:05:04.664Z,1021.59
2016-11-15T23:10:04.202Z,1021.51
2016-11-15T23:15:04.941Z,1021.37
2016-11-15T23:20:05.054Z,1021.43
2016-11-15T23:25:04.189Z,1021.43
2016-11-15T23:30:04.435Z,1021.34
2016-11-15T23:35:04.738Z,1021.33
2016-11-15T23:40:05.173Z,1021.29
2016-11-15T23:45:05.124Z,1021.16
2016-11-15T23:50:04.399Z,1021.13
2016-11-15T23:55:04.632Z,1020.98
